createdAt,value
2018-11-07T00:02:05.683Z,67.67
2018-11-07T00:04:34.364Z,69.30
2018-11-07T00:07:03.103Z,69.47
2018-11-07T00:09:31.829Z,70.07
2018-11-07T00:12:00.476Z,72.80
2018-11-07T00:14:29.120Z,68.40
2018-11-07T00:16:57.879Z,69.80
2018-11-07T00:19:26.828Z,71.37
2018-11-07T00:21:55.672Z,69.73
2018-11-07T00:24:24.447Z,74.10
2018-11-07T00:26:53.095Z,70.50
2018-11-07T00:29:21.819Z,74.20
2018-11-07T00:31:50.468Z,70.67
2018-11-07T00:34:19.109Z,75.67
2018-11-07T00:36:47.796Z,71.33
2018-11-07T00:39:16.423Z,77.23
2018-11-07T00:41:45.349Z,74.07
2018-11-07T00:44:14.013Z,72.53
2018-11-07T00:46:42.817Z,75.63
2018-11-07T00:49:11.485Z,76.23
2018-11-07T00:51:40.288Z,76.50
2018-11-07T00:54:08.964Z,75.67
2018-11-07T00:56:37.625Z,83.10
2018-11-07T00:59:06.449Z,84.63
2018-11-07T01:01:35.223Z,82.97
2018-11-07T01:04:04.008Z,70.60
2018-11-07T01:06:32.839Z,78.30
2018-11-07T01:09:01.618Z,79.47
2018-11-07T01:11:30.399Z,76.97
2018-11-07T01:13:59.166Z,73.67
2018-11-07T01:16:27.962Z,73.10
2018-11-07T01:18:56.631Z,73.70
2018-11-07T01:21:25.319Z,74.47
2018-11-07T01:23:54.230Z,78.50
2018-11-07T01:26:22.897Z,74.00
2018-11-07T01:28:51.886Z,74.07
2018-11-07T01:31:20.552Z,70.20
2018-11-07T01:33:49.227Z,77.43
2018-11-07T01:36:18.060Z,76.80
2018-11-07T01:38:46.703Z,71.90
2018-11-07T01:41:15.427Z,71.13
2018-11-07T01:43:44.231Z,70.63
2018-11-07T01:46:13.000Z,70.13
2018-11-07T01:48:41.674Z,68.67
2018-11-07T01:51:10.385Z,61.40
2018-11-07T01:53:39.160Z,71.73
2018-11-07T01:56:08.011Z,68.87
2018-11-07T01:58:36.612Z,60.10
2018-11-07T02:01:05.787Z,66.93
2018-11-07T02:03:34.611Z,67.90
2018-11-07T02:06:03.392Z,67.20
2018-11-07T02:08:32.356Z,66.77
2018-11-07T02:11:01.699Z,59.13
2018-11-07T02:13:30.480Z,65.17
2018-11-07T02:15:59.290Z,67.03
2018-11-07T02:18:27.965Z,66.57
2018-11-07T02:20:56.650Z,65.00
2018-11-07T02:23:25.474Z,63.20
2018-11-07T02:25:54.316Z,62.43
2018-11-07T02:28:23.056Z,65.67
2018-11-07T02:30:51.715Z,63.20
2018-11-07T02:33:20.384Z,61.57
2018-11-07T02:35:49.160Z,63.80
2018-11-07T02:38:17.846Z,60.63
2018-11-07T02:40:46.487Z,58.73
2018-11-07T02:43:15.616Z,59.37
2018-11-07T02:45:44.285Z,62.07
2018-11-07T02:48:13.015Z,54.40
2018-11-07T02:50:41.665Z,60.23
2018-11-07T02:53:10.506Z,58.23
2018-11-07T02:55:39.117Z,57.37
2018-11-07T02:58:07.831Z,59.30
2018-11-07T03:00:36.617Z,59.80
2018-11-07T03:03:05.469Z,60.50
2018-11-07T03:05:34.104Z,58.10
2018-11-07T03:08:02.808Z,57.93
2018-11-07T03:10:31.636Z,59.40
2018-11-07T03:13:00.234Z,57.47
2018-11-07T03:15:28.944Z,60.33
2018-11-07T03:17:57.634Z,52.33
2018-11-07T03:20:26.327Z,54.57
2018-11-07T03:22:54.959Z,55.23
2018-11-07T03:25:23.675Z,55.07
2018-11-07T03:27:52.343Z,52.13
2018-11-07T03:30:21.043Z,51.90
2018-11-07T03:32:49.836Z,45.37
2018-11-07T03:35:24.147Z,33.83
2018-11-07T03:37:52.823Z,49.17
2018-11-07T03:40:21.536Z,48.80
2018-11-07T03:42:50.308Z,48.33
2018-11-07T03:45:23.225Z,47.07
2018-11-07T03:47:51.981Z,50.77
2018-11-07T03:50:20.676Z,48.57
2018-11-07T03:52:49.325Z,45.63
2018-11-07T03:55:18.202Z,43.27
2018-11-07T03:57:46.783Z,48.33
2018-11-07T04:00:15.365Z,48.03
2018-11-07T04:02:44.088Z,50.53
2018-11-07T04:05:12.886Z,52.13
2018-11-07T04:07:42.385Z,45.27
2018-11-07T04:10:11.719Z,49.30
2018-11-07T04:12:40.595Z,47.87
2018-11-07T04:15:10.063Z,49.43
2018-11-07T04:17:38.963Z,47.57
2018-11-07T04:20:08.707Z,47.63
2018-11-07T04:22:37.348Z,48.90
2018-11-07T04:25:07.060Z,46.37
2018-11-07T04:27:35.736Z,47.00
2018-11-07T04:30:06.290Z,47.77
2018-11-07T04:32:35.065Z,43.27
2018-11-07T04:35:03.763Z,50.63
2018-11-07T04:37:32.537Z,46.80
2018-11-07T04:40:01.206Z,49.67
2018-11-07T04:42:30.109Z,47.77
2018-11-07T04:44:58.759Z,43.20
2018-11-07T04:47:27.347Z,48.87
2018-11-07T04:49:55.948Z,50.87
2018-11-07T04:52:24.628Z,49.47
2018-11-07T04:54:53.432Z,45.47
2018-11-07T04:57:22.099Z,50.20
2018-11-07T04:59:50.784Z,50.83
2018-11-07T05:02:19.543Z,47.53
2018-11-07T05:04:48.156Z,50.80
2018-11-07T05:07:17.125Z,48.53
2018-11-07T05:09:45.863Z,49.60
2018-11-07T05:12:14.505Z,41.97
2018-11-07T05:14:43.159Z,46.23
2018-11-07T05:17:11.904Z,49.67
2018-11-07T05:19:40.827Z,45.73
2018-11-07T05:22:09.463Z,47.87
2018-11-07T05:24:38.193Z,48.90
2018-11-07T05:27:06.875Z,50.53
2018-11-07T05:29:35.638Z,49.43
2018-11-07T05:32:04.498Z,43.47
2018-11-07T05:34:33.080Z,43.33
2018-11-07T05:37:01.896Z,49.97
2018-11-07T05:39:30.684Z,43.43
2018-11-07T05:41:59.364Z,47.87
2018-11-07T05:44:28.033Z,48.00
2018-11-07T05:46:56.762Z,47.73
2018-11-07T05:49:25.635Z,49.60
2018-11-07T05:51:54.416Z,49.13
2018-11-07T05:54:23.099Z,46.57
2018-11-07T05:56:52.295Z,48.43
2018-11-07T05:59:20.968Z,49.80
2018-11-07T06:01:49.770Z,46.93
2018-11-07T06:04:18.487Z,48.73
2018-11-07T06:06:47.361Z,46.80
2018-11-07T06:09:16.019Z,49.63
2018-11-07T06:11:44.826Z,42.40
2018-11-07T06:14:13.491Z,47.37
2018-11-07T06:16:42.293Z,47.80
2018-11-07T06:19:10.956Z,44.87
2018-11-07T06:21:39.984Z,47.53
2018-11-07T06:24:08.714Z,50.47
2018-11-07T06:26:37.439Z,50.00
2018-11-07T06:29:06.253Z,48.10
2018-11-07T06:31:34.897Z,48.37
2018-11-07T06:34:03.638Z,39.77
2018-11-07T06:36:33.123Z,47.67
2018-11-07T06:39:02.208Z,34.83
2018-11-07T06:41:30.983Z,49.93
2018-11-07T06:43:59.784Z,49.57
2018-11-07T06:46:28.583Z,45.30
2018-11-07T06:48:57.228Z,47.17
2018-11-07T06:51:26.060Z,45.90
2018-11-07T06:53:54.986Z,48.20
2018-11-07T06:56:23.633Z,48.03
2018-11-07T06:58:52.285Z,42.60
2018-11-07T07:01:21.017Z,45.23
2018-11-07T07:03:50.918Z,47.53
2018-11-07T07:06:19.608Z,43.13
2018-11-07T07:08:48.539Z,49.17
2018-11-07T07:11:17.240Z,44.73
2018-11-07T07:13:46.192Z,46.83
2018-11-07T07:16:14.816Z,45.87
2018-11-07T07:18:43.621Z,44.37
2018-11-07T07:21:12.388Z,49.50
2018-11-07T07:23:41.140Z,50.57
2018-11-07T07:26:09.803Z,47.00
2018-11-07T07:28:38.568Z,41.87
2018-11-07T07:31:07.254Z,47.60
2018-11-07T07:33:36.248Z,48.43
2018-11-07T07:36:04.821Z,44.53
2018-11-07T07:38:33.497Z,50.93
2018-11-07T07:41:02.231Z,44.70
2018-11-07T07:43:30.890Z,50.30
2018-11-07T07:45:59.603Z,48.53
2018-11-07T07:48:28.243Z,41.23
2018-11-07T07:50:57.040Z,42.63
2018-11-07T07:53:25.801Z,45.80
2018-11-07T07:55:54.502Z,50.80
2018-11-07T07:58:23.304Z,50.87
2018-11-07T08:00:51.968Z,49.90
2018-11-07T08:03:20.776Z,53.77
2018-11-07T08:05:49.571Z,51.53
2018-11-07T08:08:18.256Z,48.67
2018-11-07T08:10:46.933Z,50.80
2018-11-07T08:13:15.753Z,50.43
2018-11-07T08:15:44.518Z,50.17
2018-11-07T08:18:13.398Z,44.47
2018-11-07T08:20:42.199Z,50.57
2018-11-07T08:23:10.997Z,51.13
2018-11-07T08:25:39.667Z,51.53
2018-11-07T08:28:08.436Z,50.97
2018-11-07T08:30:37.168Z,52.50
2018-11-07T08:33:06.233Z,48.73
2018-11-07T08:35:35.020Z,45.17
2018-11-07T08:38:03.721Z,55.53
2018-11-07T08:40:32.409Z,53.10
2018-11-07T08:43:01.200Z,49.43
2018-11-07T08:45:29.891Z,44.97
2018-11-07T08:47:58.553Z,48.03
2018-11-07T08:50:27.257Z,47.40
2018-11-07T08:52:55.876Z,49.97
2018-11-07T08:55:24.794Z,50.37
2018-11-07T08:57:53.488Z,50.43
2018-11-07T09:00:23.352Z,50.00
2018-11-07T09:02:52.176Z,46.57
2018-11-07T09:05:21.876Z,49.27
2018-11-07T09:07:50.829Z,47.47
2018-11-07T09:10:20.824Z,49.47
2018-11-07T09:12:49.580Z,44.77
2018-11-07T09:15:20.278Z,42.50
2018-11-07T09:17:49.108Z,49.33
2018-11-07T09:20:19.018Z,49.17
2018-11-07T09:22:47.712Z,49.17
2018-11-07T09:25:16.914Z,46.20
2018-11-07T09:28:48.864Z,49.30
2018-11-07T09:31:17.789Z,45.90
2018-11-07T09:33:46.421Z,47.90
2018-11-07T09:36:15.303Z,49.40
2018-11-07T09:38:44.112Z,47.97
2018-11-07T09:41:13.117Z,49.60
2018-11-07T09:43:41.777Z,47.93
2018-11-07T09:46:10.471Z,45.67
2018-11-07T09:48:39.261Z,47.30
2018-11-07T09:51:07.992Z,48.50
2018-11-07T09:53:36.713Z,45.80
2018-11-07T09:56:06.105Z,49.17
2018-11-07T09:58:34.929Z,49.10
2018-11-07T10:01:03.717Z,45.67
2018-11-07T10:03:32.369Z,46.83
2018-11-07T10:06:01.117Z,44.40
2018-11-07T10:08:29.782Z,45.33
2018-11-07T10:10:58.509Z,43.77
2018-11-07T10:13:27.123Z,40.43
2018-11-07T10:15:55.879Z,41.17
2018-11-07T10:18:24.718Z,43.20
2018-11-07T10:20:53.423Z,44.63
2018-11-07T10:23:22.195Z,44.77
2018-11-07T10:25:51.905Z,43.37
2018-11-07T10:28:20.793Z,47.57
2018-11-07T10:30:49.673Z,52.57
2018-11-07T10:33:18.365Z,47.10
2018-11-07T10:35:47.041Z,48.10
2018-11-07T10:38:15.909Z,46.13
2018-11-07T10:40:44.781Z,48.80
2018-11-07T10:43:13.818Z,48.27
2018-11-07T10:45:42.480Z,45.90
2018-11-07T10:48:11.320Z,45.60
2018-11-07T10:50:39.982Z,47.47
2018-11-07T10:53:08.651Z,48.67
2018-11-07T10:55:37.462Z,49.10
2018-11-07T10:58:06.284Z,49.63
2018-11-07T11:00:40.446Z,47.73
2018-11-07T11:03:41.027Z,47.73
2018-11-07T11:06:09.777Z,46.33
2018-11-07T11:08:38.466Z,47.50
2018-11-07T11:11:07.257Z,45.33
2018-11-07T11:13:35.948Z,48.27
2018-11-07T11:16:04.685Z,47.30
2018-11-07T11:18:33.503Z,47.63
2018-11-07T11:21:02.461Z,48.83
2018-11-07T11:23:31.293Z,44.80
2018-11-07T11:26:00.202Z,45.63
2018-11-07T11:28:28.747Z,47.33
2018-11-07T11:30:57.468Z,61.73
2018-11-07T11:34:55.518Z,55.83
2018-11-07T11:37:24.210Z,47.60
2018-11-07T11:39:52.876Z,44.07
2018-11-07T11:42:21.590Z,43.93
2018-11-07T11:44:50.376Z,46.50
2018-11-07T11:47:19.084Z,46.10
2018-11-07T11:49:47.866Z,45.47
2018-11-07T11:52:16.626Z,45.97
2018-11-07T11:54:45.304Z,45.00
2018-11-07T11:57:14.091Z,46.77
2018-11-07T11:59:43.083Z,47.17
2018-11-07T12:02:11.895Z,47.80
2018-11-07T12:04:40.564Z,45.80
2018-11-07T12:07:09.229Z,45.50
2018-11-07T12:09:38.017Z,45.40
2018-11-07T12:12:06.813Z,42.43
2018-11-07T12:14:35.413Z,43.80
2018-11-07T12:17:04.109Z,41.53
2018-11-07T12:19:32.736Z,39.33
2018-11-07T12:23:25.935Z,46.77
2018-11-07T12:25:54.718Z,41.80
2018-11-07T12:28:23.400Z,42.33
2018-11-07T12:30:52.109Z,40.03
2018-11-07T12:33:20.886Z,41.40
2018-11-07T12:35:49.580Z,40.47
2018-11-07T12:38:18.328Z,42.40
2018-11-07T12:40:47.048Z,37.47
2018-11-07T12:43:15.719Z,42.53
2018-11-07T12:45:44.511Z,42.47
2018-11-07T12:48:13.297Z,39.53
2018-11-07T12:50:41.989Z,41.50
2018-11-07T12:53:10.778Z,42.70
2018-11-07T12:55:39.657Z,40.93
2018-11-07T12:58:08.654Z,41.77
2018-11-07T13:00:37.105Z,42.13
2018-11-07T13:03:06.307Z,42.50
2018-11-07T13:05:34.926Z,40.43
2018-11-07T13:08:03.632Z,40.67
2018-11-07T13:10:32.381Z,40.53
2018-11-07T13:13:01.049Z,40.50
2018-11-07T13:15:29.869Z,40.90
2018-11-07T13:17:58.553Z,41.27
2018-11-07T13:20:27.335Z,42.80
2018-11-07T13:22:56.322Z,41.67
2018-11-07T13:25:25.733Z,41.40
2018-11-07T13:27:54.429Z,38.87
2018-11-07T13:30:23.605Z,41.63
2018-11-07T13:32:52.298Z,41.60
2018-11-07T13:35:21.188Z,40.17
2018-11-07T13:37:51.108Z,44.50
2018-11-07T13:40:21.872Z,44.93
2018-11-07T13:42:50.675Z,43.97
2018-11-07T13:45:20.173Z,43.20
2018-11-07T13:47:50.360Z,41.70
2018-11-07T13:50:19.534Z,43.77
2018-11-07T13:52:48.225Z,42.47
2018-11-07T13:55:17.014Z,44.37
2018-11-07T13:57:45.956Z,45.87
2018-11-07T14:00:17.839Z,43.40
2018-11-07T14:02:46.969Z,44.83
2018-11-07T14:05:15.993Z,44.33
2018-11-07T14:07:44.831Z,43.30
2018-11-07T14:10:18.327Z,46.07
2018-11-07T14:12:47.233Z,43.47
2018-11-07T14:15:16.073Z,43.03
2018-11-07T14:17:44.911Z,42.10
2018-11-07T14:20:13.583Z,43.87
2018-11-07T14:22:42.784Z,42.40
2018-11-07T14:25:12.197Z,41.80
2018-11-07T14:27:41.491Z,43.67
2018-11-07T14:30:17.851Z,44.27
2018-11-07T14:32:53.396Z,44.23
2018-11-07T14:35:22.780Z,43.27
2018-11-07T14:37:52.096Z,43.20
2018-11-07T14:40:20.850Z,44.00
2018-11-07T14:42:49.568Z,46.63
2018-11-07T14:45:18.368Z,46.63
2018-11-07T14:47:47.237Z,47.93
2018-11-07T14:50:15.936Z,47.97
2018-11-07T14:52:44.608Z,48.53
2018-11-07T14:55:13.818Z,50.00
2018-11-07T14:57:42.509Z,49.87
2018-11-07T15:00:14.143Z,51.67
2018-11-07T15:02:43.771Z,48.70
2018-11-07T15:05:13.577Z,46.67
2018-11-07T15:07:43.187Z,49.10
2018-11-07T15:10:12.900Z,48.73
2018-11-07T15:12:41.683Z,48.03
2018-11-07T15:15:12.672Z,46.77
2018-11-07T15:17:41.556Z,49.23
2018-11-07T15:20:11.609Z,47.00
2018-11-07T15:22:40.384Z,47.87
2018-11-07T15:25:10.386Z,48.43
2018-11-07T15:27:39.318Z,48.33
2018-11-07T15:30:09.875Z,46.73
2018-11-07T15:34:03.006Z,48.67
2018-11-07T15:36:31.773Z,49.47
2018-11-07T15:39:00.476Z,50.07
2018-11-07T15:41:29.120Z,50.33
2018-11-07T15:43:57.853Z,48.37
2018-11-07T15:46:26.529Z,50.90
2018-11-07T15:48:55.212Z,50.73
2018-11-07T15:51:29.165Z,50.03
2018-11-07T15:53:57.913Z,49.93
2018-11-07T15:56:26.746Z,51.67
2018-11-07T15:58:55.487Z,51.07
2018-11-07T16:01:24.168Z,50.13
2018-11-07T16:03:56.447Z,51.03
2018-11-07T16:06:25.908Z,49.97
2018-11-07T16:08:56.168Z,48.87
2018-11-07T16:11:25.772Z,49.37
2018-11-07T16:13:54.866Z,48.30
2018-11-07T16:16:23.435Z,48.97
2018-11-07T16:18:52.237Z,47.53
2018-11-07T16:22:46.573Z,47.93
2018-11-07T16:25:15.510Z,48.37
2018-11-07T16:27:44.720Z,51.60
2018-11-07T16:30:15.767Z,52.67
2018-11-07T16:32:44.544Z,52.87
2018-11-07T16:35:13.900Z,51.03
2018-11-07T16:37:42.972Z,53.03
2018-11-07T16:40:12.989Z,51.17
2018-11-07T16:42:42.872Z,51.70
2018-11-07T16:45:12.488Z,53.07
2018-11-07T16:47:41.255Z,50.87
2018-11-07T16:50:11.336Z,50.47
2018-11-07T16:52:40.233Z,48.57
2018-11-07T16:55:08.884Z,49.20
2018-11-07T16:57:38.163Z,48.20
2018-11-07T17:00:12.263Z,49.67
2018-11-07T17:02:41.163Z,49.80
2018-11-07T17:05:10.878Z,52.13
2018-11-07T17:07:40.275Z,48.20
2018-11-07T17:10:10.092Z,52.00
2018-11-07T17:12:38.869Z,50.83
2018-11-07T17:15:08.071Z,51.43
2018-11-07T17:17:37.317Z,50.00
2018-11-07T17:20:07.195Z,52.13
2018-11-07T17:22:35.919Z,52.30
2018-11-07T17:25:05.082Z,51.13
2018-11-07T17:27:33.857Z,52.37
2018-11-07T17:30:02.703Z,52.37
2018-11-07T17:32:31.392Z,54.17
2018-11-07T17:35:00.204Z,53.83
2018-11-07T17:37:28.991Z,55.03
2018-11-07T17:39:58.100Z,57.97
2018-11-07T17:42:26.761Z,56.47
2018-11-07T17:44:55.571Z,52.53
2018-11-07T17:47:24.341Z,53.10
2018-11-07T17:49:53.030Z,53.20
2018-11-07T17:52:21.728Z,52.97
2018-11-07T17:54:50.613Z,53.13
2018-11-07T17:57:19.352Z,50.77
2018-11-07T17:59:48.085Z,53.47
2018-11-07T18:02:16.781Z,52.90
2018-11-07T18:04:45.460Z,52.80
2018-11-07T18:07:14.344Z,52.10
2018-11-07T18:09:43.065Z,51.73
2018-11-07T18:12:11.804Z,55.40
2018-11-07T18:14:40.705Z,55.33
2018-11-07T18:17:09.440Z,53.87
2018-11-07T18:19:38.293Z,51.53
2018-11-07T18:22:07.082Z,50.53
2018-11-07T18:24:35.939Z,56.07
2018-11-07T18:27:04.895Z,68.70
2018-11-07T18:29:33.552Z,60.37
2018-11-07T18:32:02.394Z,56.90
2018-11-07T18:34:31.419Z,56.07
2018-11-07T18:37:00.135Z,54.83
2018-11-07T18:39:28.756Z,55.40
2018-11-07T18:41:57.530Z,54.20
2018-11-07T18:44:26.253Z,52.83
2018-11-07T18:46:55.033Z,56.80
2018-11-07T18:49:23.904Z,57.03
2018-11-07T18:51:52.818Z,55.10
2018-11-07T18:54:21.616Z,57.53
2018-11-07T18:56:50.492Z,55.23
2018-11-07T18:59:19.171Z,55.33
2018-11-07T19:01:47.976Z,53.17
2018-11-07T19:04:16.715Z,54.10
2018-11-07T19:06:45.414Z,54.13
2018-11-07T19:09:14.479Z,55.20
2018-11-07T19:11:53.035Z,52.90
2018-11-07T19:14:21.941Z,56.87
2018-11-07T19:16:50.855Z,58.83
2018-11-07T19:19:19.786Z,56.63
2018-11-07T19:21:48.486Z,58.87
2018-11-07T19:24:17.295Z,65.23
2018-11-07T19:26:46.365Z,63.43
2018-11-07T19:29:15.051Z,64.97
2018-11-07T19:31:43.988Z,69.67
2018-11-07T19:34:13.052Z,63.30
2018-11-07T19:36:41.765Z,57.43
2018-11-07T19:39:11.090Z,57.10
2018-11-07T19:41:39.765Z,57.53
2018-11-07T19:44:08.595Z,59.57
2018-11-07T19:46:37.708Z,56.83
2018-11-07T19:49:06.925Z,57.83
2018-11-07T19:51:36.520Z,56.97
2018-11-07T19:54:05.323Z,57.67
2018-11-07T19:56:34.048Z,59.10
2018-11-07T19:59:02.785Z,59.93
2018-11-07T20:01:31.521Z,62.43
2018-11-07T20:04:00.553Z,64.20
2018-11-07T20:06:29.548Z,60.03
2018-11-07T20:08:58.464Z,62.60
2018-11-07T20:11:27.225Z,58.30
2018-11-07T20:13:55.976Z,58.37
2018-11-07T20:16:24.786Z,60.37
2018-11-07T20:18:53.821Z,68.30
2018-11-07T20:21:22.527Z,73.67
2018-11-07T20:23:51.297Z,78.90
2018-11-07T20:26:20.161Z,77.43
2018-11-07T20:28:49.039Z,79.47
2018-11-07T20:31:17.585Z,76.10
2018-11-07T20:33:46.733Z,79.40
2018-11-07T20:36:15.560Z,78.47
2018-11-07T20:38:44.614Z,84.60
2018-11-07T20:41:14.750Z,95.50
2018-11-07T20:43:43.540Z,98.23
2018-11-07T20:46:12.340Z,95.83
2018-11-07T20:48:41.657Z,100.13
2018-11-07T20:51:10.362Z,95.70
2018-11-07T20:53:39.299Z,102.37
2018-11-07T20:56:07.961Z,96.10
2018-11-07T20:58:36.856Z,97.87
2018-11-07T21:01:05.715Z,97.03
2018-11-07T21:03:34.551Z,95.57
2018-11-07T21:06:03.325Z,92.60
2018-11-07T21:08:32.028Z,97.67
2018-11-07T21:11:00.888Z,91.00
2018-11-07T21:13:29.881Z,85.13
2018-11-07T21:15:58.986Z,98.17
2018-11-07T21:18:27.834Z,116.43
2018-11-07T21:20:56.758Z,101.83
2018-11-07T21:23:25.485Z,92.93
2018-11-07T21:25:54.368Z,88.07
2018-11-07T21:28:23.425Z,87.47
2018-11-07T21:30:52.182Z,93.47
2018-11-07T21:33:21.107Z,88.03
2018-11-07T21:35:49.941Z,87.70
2018-11-07T21:38:18.583Z,79.03
2018-11-07T21:40:47.455Z,76.00
2018-11-07T21:43:16.180Z,75.40
2018-11-07T21:45:44.852Z,82.73
2018-11-07T21:48:13.646Z,80.23
2018-11-07T21:50:42.336Z,87.67
2018-11-07T21:53:11.190Z,83.70
2018-11-07T21:55:39.969Z,76.77
2018-11-07T21:58:08.988Z,81.73
2018-11-07T22:00:39.081Z,78.07
2018-11-07T22:03:07.899Z,82.17
2018-11-07T22:05:36.656Z,84.97
2018-11-07T22:08:05.756Z,79.53
2018-11-07T22:10:34.413Z,81.87
2018-11-07T22:13:03.281Z,77.97
2018-11-07T22:15:31.909Z,78.47
2018-11-07T22:18:00.799Z,77.10
2018-11-07T22:20:29.468Z,78.53
2018-11-07T22:22:58.146Z,78.57
2018-11-07T22:25:26.860Z,80.70
2018-11-07T22:27:55.559Z,83.30
2018-11-07T22:30:24.188Z,89.30
2018-11-07T22:32:52.925Z,85.40
2018-11-07T22:35:21.908Z,74.40
2018-11-07T22:37:50.667Z,82.63
2018-11-07T22:40:20.100Z,88.37
2018-11-07T22:42:48.856Z,96.37
2018-11-07T22:45:17.633Z,87.70
2018-11-07T22:47:46.358Z,89.70
2018-11-07T22:50:15.870Z,90.10
2018-11-07T22:52:45.359Z,90.13
2018-11-07T22:55:14.205Z,85.30
2018-11-07T22:57:43.045Z,88.90
2018-11-07T23:00:20.752Z,87.50
2018-11-07T23:02:51.189Z,80.57
2018-11-07T23:05:19.872Z,81.10
2018-11-07T23:07:49.064Z,82.67
2018-11-07T23:10:17.940Z,77.90
2018-11-07T23:12:46.841Z,81.20
2018-11-07T23:15:21.041Z,81.63
2018-11-07T23:17:49.950Z,83.03
2018-11-07T23:20:18.638Z,82.00
2018-11-07T23:22:47.524Z,82.07
2018-11-07T23:25:16.175Z,82.73
2018-11-07T23:27:45.293Z,82.47
2018-11-07T23:30:14.065Z,80.73
2018-11-07T23:32:42.722Z,84.83
2018-11-07T23:35:11.430Z,83.47
2018-11-07T23:37:40.232Z,83.43
2018-11-07T23:40:09.015Z,86.90
2018-11-07T23:42:37.804Z,84.67
2018-11-07T23:45:07.064Z,84.80
2018-11-07T23:47:35.745Z,81.23
2018-11-07T23:50:04.942Z,81.67
2018-11-07T23:52:38.984Z,79.20
2018-11-07T23:55:07.963Z,76.83
2018-11-07T23:57:36.784Z,76.80
